This is the latest recevied weather packets stored in our database for station/object K7SKM. If no packets are shown the sender has not sent any weather packets the latest 10 day(s).
| Time | Temp. | Humidity | Pressure | Rain* | Wind** | Luminosity | Snow |
|---|---|---|---|---|---|---|---|
| 1777754891 | 22.22° C | 52% | 1019.6 hPa | 0 mm | - | 374 W/m² | - |
| 1777754589 | 22.22° C | 52% | 1019.6 hPa | 0 mm | - | 373 W/m² | - |
| 1777754286 | 22.78° C | 51% | 1019.7 hPa | 0 mm | - | 353 W/m² | - |
| 1777753984 | 21.67° C | 53% | 1019.5 hPa | 0 mm | - | 357 W/m² | - |
| 1777753683 | 22.22° C | 52% | 1019.6 hPa | 0 mm | - | 391 W/m² | - |
| 1777753381 | 22.78° C | 51% | 1019.8 hPa | 0 mm | - | 406 W/m² | - |
| 1777753079 | 21.67° C | 52% | 1019.8 hPa | 0 mm | - | 423 W/m² | - |
| 1777752775 | 21.67° C | 53% | 1020.1 hPa | 0 mm | - | 404 W/m² | - |
| 1777752471 | 22.22° C | 52% | 1019.8 hPa | 0 mm | - | 415 W/m² | - |
| 1777752167 | 22.78° C | 52% | 1020 hPa | 0 mm | - | 410 W/m² | - |
| 1777751866 | 22.22° C | 52% | 1020.1 hPa | 0 mm | - | 408 W/m² | - |
| 1777751562 | 21.67° C | 54% | 1020.1 hPa | 0 mm | - | 390 W/m² | - |
| 1777751258 | 21.11° C | 54% | 1020.2 hPa | 0 mm | - | 409 W/m² | - |
| 1777750956 | 22.22° C | 52% | 1020.2 hPa | 0 mm | - | 424 W/m² | - |
| 1777750651 | 21.11° C | 56% | 1020.4 hPa | 0 mm | - | 413 W/m² | - |
| 1777750349 | 21.11° C | 55% | 1020.2 hPa | 0 mm | - | 409 W/m² | - |
| 1777750049 | 20.56° C | 57% | 1020.4 hPa | 0 mm | - | 408 W/m² | - |
| 1777749747 | 21.11° C | 54% | 1020.4 hPa | 0 mm | - | 413 W/m² | - |
| 1777749443 | 20.56° C | 57% | 1020.5 hPa | 0 mm | - | 402 W/m² | - |
| 1777749141 | 19.44° C | 59% | 1020.6 hPa | 0 mm | - | 394 W/m² | - |
| 1777748838 | 18.89° C | 59% | 1020.4 hPa | 0 mm | - | 395 W/m² | - |
| 1777748536 | 19.44° C | 60% | 1020.7 hPa | 0 mm | - | 392 W/m² | - |
| 1777748235 | 20° C | 59% | 1020.8 hPa | 0 mm | - | 393 W/m² | - |
| 1777747932 | 19.44° C | 59% | 1020.8 hPa | 0 mm | - | 395 W/m² | - |
| 1777747629 | 20° C | 58% | 1021 hPa | 0 mm | - | 391 W/m² | - |
* Rain latest hour (hover to see other rain measurements)
** Current wind speed in m/s (hover to see current wind gust speed)